Time;durP1;ratioP1;P1;durP2;ratioP2;P2;SDS_P1;SDS_P2;PMS_P1;PMS_P2;Temp;Humidity;BMP_temperature;BMP_pressure;BME280_temperature;BME280_humidity;BME280_pressure;Samples;Min_cycle;Max_cycle;Signal;HPM_P1;HPM_P2
2022/01/05 00:01:41;;;;;;;8.55;4.40;;;;;;;;;;5020943;28;20030;-78
2022/01/05 00:04:07;;;;;;;8.82;4.88;;;;;;;;;;5022717;28;20033;-77
2022/01/05 00:06:33;;;;;;;8.35;4.15;;;;;;;;;;5019263;28;20030;-78
2022/01/05 00:08:59;;;;;;;6.57;4.47;;;;;;;;;;5021413;28;20049;-78
2022/01/05 00:11:25;;;;;;;7.20;4.28;;;;;;;;;;5022910;28;20030;-78
2022/01/05 00:13:51;;;;;;;6.85;4.07;;;;;;;;;;5021340;28;20038;-78
2022/01/05 00:16:17;;;;;;;6.90;3.90;;;;;;;;;;5021504;28;20045;-77
2022/01/05 00:18:43;;;;;;;6.72;4.15;;;;;;;;;;5020478;28;20049;-78
2022/01/05 00:21:09;;;;;;;7.03;3.75;;;;;;;;;;5022044;28;20041;-79
2022/01/05 00:23:35;;;;;;;6.50;3.67;;;;;;;;;;5019767;28;20172;-78
2022/01/05 00:26:03;;;;;;;6.80;3.88;;;;;;;;;;5019882;28;20097;-78
2022/01/05 00:28:29;;;;;;;6.68;3.85;;;;;;;;;;5020442;28;20076;-78
2022/01/05 00:30:55;;;;;;;9.25;4.30;;;;;;;;;;5020566;28;20028;-78
2022/01/05 00:33:21;;;;;;;7.60;4.10;;;;;;;;;;5020930;28;20025;-79
2022/01/05 00:35:47;;;;;;;5.50;3.42;;;;;;;;;;5021901;28;20435;-78
2022/01/05 00:38:13;;;;;;;8.35;3.88;;;;;;;;;;5021372;28;20474;-78
2022/01/05 00:40:40;;;;;;;7.15;4.05;;;;;;;;;;5021956;28;20041;-78
2022/01/05 00:43:06;;;;;;;7.13;4.05;;;;;;;;;;5022220;28;20104;-78
2022/01/05 00:45:32;;;;;;;7.90;4.70;;;;;;;;;;5021662;28;20100;-79
2022/01/05 00:47:58;;;;;;;7.95;4.50;;;;;;;;;;5021771;28;20468;-79
2022/01/05 00:50:24;;;;;;;7.93;4.40;;;;;;;;;;5020598;28;20053;-78
2022/01/05 00:52:50;;;;;;;7.82;4.05;;;;;;;;;;5020282;28;20084;-79
2022/01/05 00:55:16;;;;;;;8.15;5.20;;;;;;;;;;5022029;28;20046;-78
2022/01/05 00:57:45;;;;;;;7.03;4.55;;;;;;;;;;5021926;28;20041;-78
2022/01/05 01:00:13;;;;;;;8.30;5.00;;;;;;;;;;5021835;28;20018;-79
2022/01/05 01:02:39;;;;;;;8.60;4.75;;;;;;;;;;5020957;28;20030;-79
2022/01/05 01:05:05;;;;;;;7.20;4.30;;;;;;;;;;5020729;28;20026;-78
2022/01/05 01:07:31;;;;;;;8.38;5.38;;;;;;;;;;5021374;28;20057;-78
2022/01/05 01:09:57;;;;;;;7.18;4.55;;;;;;;;;;5020749;28;20544;-77
2022/01/05 01:12:23;;;;;;;7.90;5.18;;;;;;;;;;5020473;28;20026;-79
2022/01/05 01:14:49;;;;;;;9.57;5.45;;;;;;;;;;5019055;28;20065;-79
2022/01/05 01:17:15;;;;;;;8.45;5.38;;;;;;;;;;5020386;28;20029;-78
2022/01/05 01:19:41;;;;;;;9.85;5.60;;;;;;;;;;5020048;28;20404;-78
2022/01/05 01:22:07;;;;;;;7.50;4.90;;;;;;;;;;5019439;28;20392;-79
2022/01/05 01:24:33;;;;;;;6.93;4.38;;;;;;;;;;5020421;28;20117;-79
2022/01/05 01:26:59;;;;;;;7.88;5.25;;;;;;;;;;5021171;28;20017;-78
2022/01/05 01:29:25;;;;;;;8.23;4.82;;;;;;;;;;5019583;28;20068;-78
2022/01/05 01:31:51;;;;;;;8.65;4.93;;;;;;;;;;5020705;28;20025;-79
2022/01/05 01:34:18;;;;;;;9.48;5.65;;;;;;;;;;5019920;28;20044;-79
2022/01/05 01:36:44;;;;;;;8.75;5.47;;;;;;;;;;5019996;28;20033;-79
2022/01/05 01:39:10;;;;;;;7.22;4.63;;;;;;;;;;5019694;28;20451;-78
2022/01/05 01:41:36;;;;;;;9.02;4.80;;;;;;;;;;5020491;28;20419;-78
2022/01/05 01:44:02;;;;;;;6.88;3.95;;;;;;;;;;5018709;28;20033;-78
2022/01/05 01:46:28;;;;;;;9.45;4.45;;;;;;;;;;5020375;28;20034;-79
2022/01/05 01:48:55;;;;;;;8.25;4.75;;;;;;;;;;5019939;28;20052;-79
2022/01/05 01:51:23;;;;;;;7.63;5.00;;;;;;;;;;5019148;28;20117;-78
2022/01/05 01:53:49;;;;;;;8.70;5.07;;;;;;;;;;5018547;28;20038;-79
2022/01/05 01:56:15;;;;;;;8.98;4.78;;;;;;;;;;5019384;28;20103;-78
2022/01/05 01:58:44;;;;;;;7.47;4.63;;;;;;;;;;5019949;28;20052;-78
2022/01/05 02:01:10;;;;;;;8.90;4.82;;;;;;;;;;5021402;28;20089;-78
2022/01/05 02:03:37;;;;;;;9.88;5.20;;;;;;;;;;5020271;28;20095;-78
2022/01/05 02:06:03;;;;;;;9.57;5.13;;;;;;;;;;5021676;28;20025;-77
2022/01/05 02:08:29;;;;;;;8.55;5.45;;;;;;;;;;5020909;28;20077;-78
2022/01/05 02:10:55;;;;;;;8.70;4.72;;;;;;;;;;5019875;28;20026;-79
2022/01/05 02:13:21;;;;;;;9.68;4.95;;;;;;;;;;5024299;28;20026;-78
2022/01/05 02:15:49;;;;;;;9.90;4.90;;;;;;;;;;5025663;28;20032;-78
2022/01/05 02:20:47;;;;;;;7.07;4.32;;;;;;;;;;5026817;28;20030;-79
2022/01/05 02:23:13;;;;;;;9.43;5.18;;;;;;;;;;5023251;28;20026;-78
2022/01/05 02:25:39;;;;;;;9.65;5.22;;;;;;;;;;5024450;28;20064;-77
2022/01/05 02:28:05;;;;;;;8.05;5.20;;;;;;;;;;5022427;28;20030;-78
2022/01/05 02:30:32;;;;;;;8.65;5.40;;;;;;;;;;5023701;28;20022;-79
2022/01/05 02:32:58;;;;;;;9.07;6.03;;;;;;;;;;5023692;28;20392;-79
2022/01/05 02:35:25;;;;;;;8.23;5.05;;;;;;;;;;5023562;28;20029;-78
2022/01/05 02:37:52;;;;;;;8.30;5.50;;;;;;;;;;5023386;28;20042;-79
2022/01/05 02:40:20;;;;;;;8.68;5.72;;;;;;;;;;5024449;28;20026;-78
2022/01/05 02:42:47;;;;;;;7.13;5.00;;;;;;;;;;5024102;28;20049;-79
2022/01/05 02:45:14;;;;;;;7.38;5.30;;;;;;;;;;5024699;28;20028;-78
2022/01/05 02:47:40;;;;;;;8.88;5.60;;;;;;;;;;5023390;28;20104;-78
2022/01/05 02:50:07;;;;;;;7.55;5.03;;;;;;;;;;5023172;28;20045;-78
2022/01/05 02:52:34;;;;;;;7.97;5.00;;;;;;;;;;5022519;28;20094;-78
2022/01/05 02:55:00;;;;;;;7.00;4.93;;;;;;;;;;5023306;28;20041;-78
2022/01/05 02:57:27;;;;;;;9.63;5.10;;;;;;;;;;5021847;28;20022;-78
2022/01/05 02:59:54;;;;;;;9.10;5.00;;;;;;;;;;5022381;28;20120;-78
2022/01/05 03:02:20;;;;;;;8.18;5.22;;;;;;;;;;5022547;28;20029;-79
2022/01/05 03:04:46;;;;;;;7.22;4.70;;;;;;;;;;5022912;28;20049;-78
2022/01/05 03:07:13;;;;;;;8.43;5.28;;;;;;;;;;5023407;28;20037;-79
2022/01/05 03:09:40;;;;;;;7.75;4.68;;;;;;;;;;5021979;28;20515;-78
2022/01/05 03:12:06;;;;;;;7.28;4.72;;;;;;;;;;5022710;28;20037;-77
2022/01/05 03:14:32;;;;;;;7.18;4.05;;;;;;;;;;5023130;28;20026;-78
2022/01/05 03:16:58;;;;;;;6.68;3.60;;;;;;;;;;5023753;28;20029;-79
2022/01/05 03:19:25;;;;;;;6.53;3.70;;;;;;;;;;5020965;28;20040;-78
2022/01/05 03:21:51;;;;;;;6.20;3.25;;;;;;;;;;5020662;28;20096;-77
2022/01/05 03:24:17;;;;;;;4.88;2.47;;;;;;;;;;5020883;28;20034;-79
2022/01/05 03:26:43;;;;;;;5.30;2.22;;;;;;;;;;5021595;28;20022;-77
2022/01/05 03:29:09;;;;;;;5.00;2.42;;;;;;;;;;5021284;28;20022;-78
2022/01/05 03:31:35;;;;;;;4.10;2.28;;;;;;;;;;5022535;28;20026;-77
2022/01/05 03:34:03;;;;;;;4.53;2.33;;;;;;;;;;5023558;28;20033;-78
2022/01/05 03:36:29;;;;;;;4.53;2.22;;;;;;;;;;5023049;28;20018;-78
2022/01/05 03:38:55;;;;;;;4.68;2.28;;;;;;;;;;5022966;28;20037;-78
2022/01/05 03:41:21;;;;;;;4.40;2.20;;;;;;;;;;5022434;28;20105;-78
2022/01/05 03:43:47;;;;;;;4.40;2.15;;;;;;;;;;5021662;28;20030;-79
2022/01/05 03:46:13;;;;;;;5.05;2.10;;;;;;;;;;5022853;28;20018;-78
2022/01/05 03:48:40;;;;;;;5.57;2.22;;;;;;;;;;5021206;28;20033;-79
2022/01/05 03:51:05;;;;;;;4.60;2.42;;;;;;;;;;5021821;28;20097;-78
2022/01/05 03:53:32;;;;;;;5.03;2.47;;;;;;;;;;5022180;28;20045;-77
2022/01/05 03:55:58;;;;;;;4.38;2.35;;;;;;;;;;5020526;28;20022;-78
2022/01/05 03:58:24;;;;;;;3.80;2.03;;;;;;;;;;5023043;28;20080;-79
2022/01/05 04:00:51;;;;;;;4.45;2.28;;;;;;;;;;5021295;28;20612;-78
2022/01/05 04:03:18;;;;;;;4.63;2.33;;;;;;;;;;5020791;28;20041;-77
2022/01/05 04:05:44;;;;;;;4.88;2.10;;;;;;;;;;5022323;28;20025;-78
2022/01/05 04:08:10;;;;;;;4.60;2.30;;;;;;;;;;5022006;28;20443;-78
2022/01/05 04:10:37;;;;;;;4.03;1.55;;;;;;;;;;5021310;28;20026;-78
2022/01/05 04:13:03;;;;;;;4.13;1.38;;;;;;;;;;5022426;28;20014;-78
2022/01/05 04:15:32;;;;;;;4.53;1.63;;;;;;;;;;5021349;28;20054;-78
2022/01/05 04:17:58;;;;;;;3.50;1.60;;;;;;;;;;5021698;28;20034;-78
2022/01/05 04:20:25;;;;;;;3.53;1.50;;;;;;;;;;5020743;28;20022;-78
2022/01/05 04:22:51;;;;;;;3.97;1.52;;;;;;;;;;5021373;28;20037;-78
2022/01/05 04:25:17;;;;;;;2.90;1.17;;;;;;;;;;5021279;28;20400;-78
2022/01/05 04:27:43;;;;;;;4.00;1.40;;;;;;;;;;5022159;28;20090;-78
2022/01/05 04:30:10;;;;;;;3.05;1.20;;;;;;;;;;5022006;28;20022;-77
2022/01/05 04:32:36;;;;;;;3.10;1.20;;;;;;;;;;5022448;28;20050;-77
2022/01/05 04:35:03;;;;;;;2.78;1.13;;;;;;;;;;5020786;28;20037;-78
2022/01/05 04:37:31;;;;;;;3.70;1.40;;;;;;;;;;5022734;28;20034;-77
2022/01/05 04:39:58;;;;;;;3.22;1.60;;;;;;;;;;5021855;28;20030;-77
2022/01/05 04:42:24;;;;;;;3.15;1.27;;;;;;;;;;5021813;28;20026;-78
2022/01/05 04:44:51;;;;;;;3.45;1.30;;;;;;;;;;5022098;28;20022;-78
2022/01/05 04:47:17;;;;;;;3.95;1.70;;;;;;;;;;5021325;28;20096;-77
2022/01/05 04:49:43;;;;;;;3.50;1.50;;;;;;;;;;5021757;28;20018;-78
2022/01/05 04:52:09;;;;;;;3.72;1.70;;;;;;;;;;5021509;28;20029;-78
2022/01/05 04:54:35;;;;;;;3.58;1.42;;;;;;;;;;5021597;28;20049;-77
2022/01/05 04:57:01;;;;;;;3.47;1.73;;;;;;;;;;5021463;28;20030;-78
2022/01/05 04:59:27;;;;;;;3.30;1.30;;;;;;;;;;5021315;28;20120;-78
2022/01/05 05:01:53;;;;;;;6.20;1.50;;;;;;;;;;5022948;28;20061;-78
2022/01/05 05:04:19;;;;;;;1.95;0.70;;;;;;;;;;5021879;28;20029;-77
2022/01/05 05:06:46;;;;;;;1.48;0.70;;;;;;;;;;5022218;28;20029;-77
2022/01/05 05:09:13;;;;;;;1.27;0.50;;;;;;;;;;5019802;28;20093;-79
2022/01/05 05:11:39;;;;;;;1.33;0.60;;;;;;;;;;5021472;28;20032;-78
2022/01/05 05:14:05;;;;;;;1.90;0.70;;;;;;;;;;5021525;28;20056;-78
2022/01/05 05:16:31;;;;;;;2.38;0.77;;;;;;;;;;5020706;28;20565;-78
2022/01/05 05:18:57;;;;;;;2.40;0.70;;;;;;;;;;5022138;28;20078;-78
2022/01/05 05:21:23;;;;;;;2.97;0.70;;;;;;;;;;5021806;28;20511;-78
2022/01/05 05:23:49;;;;;;;1.52;0.55;;;;;;;;;;5025683;28;20018;-77
2022/01/05 05:26:15;;;;;;;2.00;0.60;;;;;;;;;;5023252;28;20040;-77
2022/01/05 05:28:41;;;;;;;1.90;0.50;;;;;;;;;;5023016;28;20056;-77
2022/01/05 05:31:08;;;;;;;1.30;0.45;;;;;;;;;;5022003;28;20022;-77
2022/01/05 05:33:34;;;;;;;2.13;0.63;;;;;;;;;;5020716;28;20414;-76
2022/01/05 05:36:00;;;;;;;1.60;0.50;;;;;;;;;;5021646;28;20030;-77
2022/01/05 05:38:28;;;;;;;1.67;0.57;;;;;;;;;;5019655;28;20440;-78
2022/01/05 05:40:54;;;;;;;1.80;0.65;;;;;;;;;;5019818;28;20029;-78
2022/01/05 05:43:20;;;;;;;1.08;0.50;;;;;;;;;;5019014;28;20025;-78
2022/01/05 05:45:47;;;;;;;1.75;0.85;;;;;;;;;;5021021;28;20097;-78
2022/01/05 05:48:13;;;;;;;2.17;0.60;;;;;;;;;;5019627;28;20029;-78
2022/01/05 05:50:42;;;;;;;1.30;0.60;;;;;;;;;;5019683;28;20026;-78
2022/01/05 05:53:08;;;;;;;2.08;0.80;;;;;;;;;;5020024;28;20049;-78
2022/01/05 05:55:34;;;;;;;2.03;0.80;;;;;;;;;;5020538;28;20072;-79
2022/01/05 05:58:01;;;;;;;2.17;0.90;;;;;;;;;;5018308;28;20029;-77
2022/01/05 06:00:29;;;;;;;2.25;0.73;;;;;;;;;;5020307;28;20045;-79
2022/01/05 06:02:56;;;;;;;2.35;0.90;;;;;;;;;;5022327;28;20026;-78
2022/01/05 06:05:22;;;;;;;2.28;0.90;;;;;;;;;;5019372;28;20026;-78
2022/01/05 06:07:48;;;;;;;1.98;0.80;;;;;;;;;;5020498;28;20482;-78
2022/01/05 06:10:14;;;;;;;3.55;1.25;;;;;;;;;;5017717;28;20495;-78
2022/01/05 06:12:40;;;;;;;3.38;1.13;;;;;;;;;;5019312;28;20077;-78
2022/01/05 06:15:06;;;;;;;3.05;1.00;;;;;;;;;;5000329;28;20069;-78
2022/01/05 06:17:33;;;;;;;2.75;0.95;;;;;;;;;;5001384;28;20057;-78
2022/01/05 06:19:59;;;;;;;3.20;1.30;;;;;;;;;;5001100;28;20523;-78
2022/01/05 06:22:26;;;;;;;3.95;2.00;;;;;;;;;;5002750;28;20050;-79
2022/01/05 06:24:52;;;;;;;5.80;3.72;;;;;;;;;;5002040;28;20030;-78
2022/01/05 06:27:18;;;;;;;7.43;4.30;;;;;;;;;;5015890;28;20022;-79
2022/01/05 06:29:46;;;;;;;5.55;3.40;;;;;;;;;;5022124;28;20018;-79
2022/01/05 06:32:13;;;;;;;4.05;1.83;;;;;;;;;;5020808;28;20100;-78
2022/01/05 06:34:39;;;;;;;2.85;1.20;;;;;;;;;;5020988;28;20557;-79
2022/01/05 06:37:05;;;;;;;3.70;1.73;;;;;;;;;;5020959;28;20057;-78
2022/01/05 06:39:31;;;;;;;3.20;1.20;;;;;;;;;;5022116;28;20053;-80
2022/01/05 06:41:57;;;;;;;3.20;1.20;;;;;;;;;;5020244;28;20049;-78
2022/01/05 06:44:23;;;;;;;2.58;0.90;;;;;;;;;;5019639;28;20033;-79
2022/01/05 06:46:49;;;;;;;2.60;0.70;;;;;;;;;;5016872;28;20135;-78
2022/01/05 06:49:15;;;;;;;2.25;0.70;;;;;;;;;;5020554;28;20025;-79
2022/01/05 06:51:41;;;;;;;1.90;0.63;;;;;;;;;;5016911;28;20058;-78
2022/01/05 06:54:07;;;;;;;1.95;0.60;;;;;;;;;;5020372;28;20046;-78
2022/01/05 06:56:33;;;;;;;1.77;0.60;;;;;;;;;;5019628;28;20049;-78
2022/01/05 06:58:59;;;;;;;1.75;0.70;;;;;;;;;;5022362;28;20026;-78
2022/01/05 07:01:26;;;;;;;4.63;1.35;;;;;;;;;;5022522;28;20085;-78
2022/01/05 07:03:52;;;;;;;4.25;1.30;;;;;;;;;;5023469;28;20404;-78
2022/01/05 07:06:18;;;;;;;2.83;1.00;;;;;;;;;;5024193;28;20028;-78
2022/01/05 07:08:44;;;;;;;2.22;1.00;;;;;;;;;;5023486;28;20038;-79
2022/01/05 07:11:10;;;;;;;3.28;0.82;;;;;;;;;;5024047;28;20028;-79
2022/01/05 07:13:36;;;;;;;1.95;0.75;;;;;;;;;;5023508;28;20037;-79
2022/01/05 07:16:02;;;;;;;1.40;0.50;;;;;;;;;;5023967;28;20052;-78
2022/01/05 07:18:28;;;;;;;1.92;0.80;;;;;;;;;;5023564;28;20030;-79
2022/01/05 07:20:54;;;;;;;1.95;0.73;;;;;;;;;;5023638;28;20045;-79
2022/01/05 07:23:20;;;;;;;2.25;0.75;;;;;;;;;;5020966;28;20030;-77
2022/01/05 07:25:46;;;;;;;1.08;0.60;;;;;;;;;;5021933;28;20026;-77
2022/01/05 07:28:14;;;;;;;1.42;0.68;;;;;;;;;;5020313;28;20022;-77
2022/01/05 07:30:40;;;;;;;1.73;0.68;;;;;;;;;;5019914;28;20029;-76
2022/01/05 07:33:06;;;;;;;2.47;0.85;;;;;;;;;;5020564;28;20032;-78
2022/01/05 07:35:32;;;;;;;2.22;0.70;;;;;;;;;;5022509;28;20052;-77
2022/01/05 07:37:58;;;;;;;2.08;0.65;;;;;;;;;;5022464;28;20050;-78
2022/01/05 07:40:24;;;;;;;1.88;0.60;;;;;;;;;;5020429;28;20503;-78
2022/01/05 07:42:50;;;;;;;1.45;0.73;;;;;;;;;;5021611;28;20400;-78
2022/01/05 07:45:16;;;;;;;1.88;0.75;;;;;;;;;;5022654;28;20030;-78
2022/01/05 07:47:42;;;;;;;2.88;1.00;;;;;;;;;;5021495;28;20092;-78
2022/01/05 07:50:14;;;;;;;2.35;0.82;;;;;;;;;;5021935;28;20025;-77
2022/01/05 07:52:41;;;;;;;2.97;0.90;;;;;;;;;;5022313;28;20018;-77
2022/01/05 07:55:07;;;;;;;4.13;1.00;;;;;;;;;;5020557;28;20070;-79
2022/01/05 07:57:34;;;;;;;2.83;1.08;;;;;;;;;;5022099;28;20041;-77
2022/01/05 08:00:00;;;;;;;5.07;2.72;;;;;;;;;;5019832;28;20036;-78
2022/01/05 08:02:26;;;;;;;5.00;3.00;;;;;;;;;;5022531;28;20030;-77
2022/01/05 08:04:52;;;;;;;5.75;2.90;;;;;;;;;;5020059;28;20133;-78
2022/01/05 08:07:20;;;;;;;4.85;2.25;;;;;;;;;;5021022;28;20018;-78
2022/01/05 08:09:47;;;;;;;5.50;3.50;;;;;;;;;;5020953;28;20022;-78
2022/01/05 08:12:13;;;;;;;6.30;3.65;;;;;;;;;;5020973;28;20345;-78
2022/01/05 08:14:42;;;;;;;5.57;3.33;;;;;;;;;;5020206;28;20111;-77
2022/01/05 08:17:08;;;;;;;5.43;3.38;;;;;;;;;;5021153;28;20030;-77
2022/01/05 08:19:34;;;;;;;5.60;3.20;;;;;;;;;;5022891;28;20026;-77
2022/01/05 08:22:00;;;;;;;4.80;2.88;;;;;;;;;;5019956;28;20049;-77
2022/01/05 08:24:26;;;;;;;5.63;2.45;;;;;;;;;;5020026;28;20511;-76
2022/01/05 08:26:53;;;;;;;4.60;2.50;;;;;;;;;;5020249;28;20041;-78
2022/01/05 08:29:19;;;;;;;5.40;3.10;;;;;;;;;;5022598;28;20030;-77
2022/01/05 08:31:45;;;;;;;5.00;2.67;;;;;;;;;;5021839;28;20033;-78
2022/01/05 08:34:11;;;;;;;4.90;2.50;;;;;;;;;;5022230;28;20026;-78
2022/01/05 08:36:40;;;;;;;4.80;2.67;;;;;;;;;;5021795;28;20026;-77
2022/01/05 08:39:06;;;;;;;4.72;2.25;;;;;;;;;;5020860;28;20026;-78
2022/01/05 08:41:32;;;;;;;5.43;2.83;;;;;;;;;;5020218;28;20068;-78
2022/01/05 08:43:58;;;;;;;5.32;2.70;;;;;;;;;;5018089;28;20034;-77
2022/01/05 08:46:24;;;;;;;5.35;2.30;;;;;;;;;;5020058;28;20149;-78
2022/01/05 08:48:50;;;;;;;4.72;2.28;;;;;;;;;;5020485;28;20113;-78
2022/01/05 08:51:17;;;;;;;3.78;1.85;;;;;;;;;;5020378;28;20041;-78
2022/01/05 08:53:43;;;;;;;4.32;2.00;;;;;;;;;;5019863;28;20080;-79
2022/01/05 08:56:09;;;;;;;4.25;1.83;;;;;;;;;;5019575;28;20499;-78
2022/01/05 08:58:35;;;;;;;3.38;1.60;;;;;;;;;;5017772;28;20026;-77
2022/01/05 09:01:01;;;;;;;3.83;1.75;;;;;;;;;;5019288;28;20029;-77
2022/01/05 09:03:27;;;;;;;3.80;1.70;;;;;;;;;;5018856;28;20032;-78
2022/01/05 09:05:53;;;;;;;4.07;1.90;;;;;;;;;;5018609;28;20030;-78
2022/01/05 09:08:20;;;;;;;3.92;1.85;;;;;;;;;;5020260;28;20054;-78
2022/01/05 09:10:47;;;;;;;4.78;1.98;;;;;;;;;;5019141;28;20080;-77
2022/01/05 09:13:13;;;;;;;3.75;1.55;;;;;;;;;;5018282;28;20032;-77
2022/01/05 09:15:40;;;;;;;3.40;1.67;;;;;;;;;;5017253;28;20392;-77
2022/01/05 09:18:06;;;;;;;3.88;1.67;;;;;;;;;;5016771;28;20030;-76
2022/01/05 09:20:32;;;;;;;3.50;1.60;;;;;;;;;;5016989;28;20034;-77
2022/01/05 09:22:59;;;;;;;5.85;2.30;;;;;;;;;;5018175;28;20030;-78
2022/01/05 09:25:25;;;;;;;3.30;1.42;;;;;;;;;;5017708;28;20030;-77
2022/01/05 09:27:51;;;;;;;2.65;1.23;;;;;;;;;;5018361;28;20084;-77
2022/01/05 09:30:19;;;;;;;4.00;1.80;;;;;;;;;;5017843;28;20026;-79
2022/01/05 09:32:45;;;;;;;3.78;1.65;;;;;;;;;;5016669;28;20022;-79
2022/01/05 09:35:15;;;;;;;4.05;1.50;;;;;;;;;;5016440;28;20128;-78
2022/01/05 09:43:10;;;;;;;2.90;1.38;;;;;;;;;;5017247;28;20033;-78
2022/01/05 09:45:38;;;;;;;3.53;1.40;;;;;;;;;;5017766;28;20033;-78
2022/01/05 09:48:23;;;;;;;2.92;1.13;;;;;;;;;;5016983;28;20041;-78
2022/01/05 09:50:55;;;;;;;3.38;1.35;;;;;;;;;;5016800;28;20022;-78
2022/01/05 09:53:22;;;;;;;2.13;0.93;;;;;;;;;;5017398;28;20025;-77
2022/01/05 09:55:51;;;;;;;3.28;1.15;;;;;;;;;;5017865;28;20041;-78
2022/01/05 09:58:19;;;;;;;2.47;1.10;;;;;;;;;;5019575;28;20036;-79
2022/01/05 10:00:45;;;;;;;2.63;1.20;;;;;;;;;;5020405;28;20018;-78
2022/01/05 10:03:14;;;;;;;3.22;1.20;;;;;;;;;;5020515;28;20086;-79
2022/01/05 10:05:40;;;;;;;2.95;1.30;;;;;;;;;;5018769;28;20045;-79
2022/01/05 10:08:07;;;;;;;2.38;1.00;;;;;;;;;;5019513;28;20080;-79
2022/01/05 10:10:33;;;;;;;3.50;1.67;;;;;;;;;;5020812;28;20042;-79
2022/01/05 10:12:59;;;;;;;3.10;1.40;;;;;;;;;;5020564;28;20069;-79
2022/01/05 10:15:26;;;;;;;2.67;1.25;;;;;;;;;;5019351;28;20046;-78
2022/01/05 10:18:08;;;;;;;3.33;1.23;;;;;;;;;;5018953;28;20034;-78
2022/01/05 10:20:34;;;;;;;3.13;1.10;;;;;;;;;;5019532;28;20026;-79
2022/01/05 10:23:00;;;;;;;3.05;1.20;;;;;;;;;;5020421;28;20034;-79
2022/01/05 10:25:26;;;;;;;2.38;0.95;;;;;;;;;;5021005;28;20468;-79
2022/01/05 10:27:56;;;;;;;2.13;1.00;;;;;;;;;;5020816;28;20018;-79
2022/01/05 10:30:22;;;;;;;2.25;1.02;;;;;;;;;;5018946;28;20022;-78
2022/01/05 10:32:54;;;;;;;2.40;0.93;;;;;;;;;;5021399;28;20093;-78
2022/01/05 10:35:22;;;;;;;1.58;0.70;;;;;;;;;;5026043;28;20029;-78
2022/01/05 10:37:56;;;;;;;2.15;0.77;;;;;;;;;;5028504;28;20029;-77
2022/01/05 10:40:26;;;;;;;2.00;0.80;;;;;;;;;;5007779;28;20065;-78
2022/01/05 10:42:54;;;;;;;1.48;0.70;;;;;;;;;;5006700;28;20026;-78
2022/01/05 10:45:21;;;;;;;1.65;0.70;;;;;;;;;;5005455;28;20030;-80
2022/01/05 10:48:07;;;;;;;1.73;0.50;;;;;;;;;;5005951;28;20246;-78
2022/01/05 10:50:34;;;;;;;1.67;0.60;;;;;;;;;;5011290;28;20079;-79
2022/01/05 10:53:01;;;;;;;2.15;0.60;;;;;;;;;;5025316;28;20356;-79
2022/01/05 10:55:28;;;;;;;1.55;0.60;;;;;;;;;;5022354;28;20074;-79
2022/01/05 10:57:55;;;;;;;1.98;0.80;;;;;;;;;;5020305;28;20395;-77
2022/01/05 11:00:31;;;;;;;1.45;0.63;;;;;;;;;;5019525;28;20025;-78
2022/01/05 11:02:57;;;;;;;0.77;0.43;;;;;;;;;;5025592;28;20029;-78
2022/01/05 11:05:23;;;;;;;2.00;0.77;;;;;;;;;;5022575;28;20029;-77
2022/01/05 11:07:49;;;;;;;1.25;0.55;;;;;;;;;;5022828;28;20026;-78
2022/01/05 11:10:17;;;;;;;1.20;0.60;;;;;;;;;;5020814;28;20029;-77
2022/01/05 11:12:45;;;;;;;2.08;0.70;;;;;;;;;;5019268;28;20026;-78
2022/01/05 11:15:18;;;;;;;2.90;0.60;;;;;;;;;;5022210;28;20109;-79
2022/01/05 11:18:03;;;;;;;1.65;0.75;;;;;;;;;;5019309;28;20506;-78
2022/01/05 11:20:29;;;;;;;1.88;0.82;;;;;;;;;;5021304;28;20042;-79
2022/01/05 11:22:55;;;;;;;2.17;0.77;;;;;;;;;;5020571;28;20034;-77
2022/01/05 11:25:21;;;;;;;0.95;0.60;;;;;;;;;;5020194;28;20102;-77
2022/01/05 11:27:47;;;;;;;2.22;0.80;;;;;;;;;;5022448;28;20021;-78
2022/01/05 11:30:13;;;;;;;2.08;0.80;;;;;;;;;;5023081;28;20488;-78
2022/01/05 11:32:40;;;;;;;1.10;0.70;;;;;;;;;;5023333;28;20137;-78
2022/01/05 11:35:09;;;;;;;1.52;0.60;;;;;;;;;;5022621;28;20029;-79
2022/01/05 11:37:35;;;;;;;1.50;0.65;;;;;;;;;;5024659;28;20076;-81
2022/01/05 11:40:04;;;;;;;2.03;0.70;;;;;;;;;;5025744;28;20034;-78
2022/01/05 11:42:33;;;;;;;4.20;0.95;;;;;;;;;;5025030;28;20057;-78
2022/01/05 11:44:59;;;;;;;2.25;0.88;;;;;;;;;;5025392;28;20508;-78
2022/01/05 11:47:30;;;;;;;3.33;0.93;;;;;;;;;;5022821;28;20061;-79
2022/01/05 11:50:16;;;;;;;2.15;0.90;;;;;;;;;;5022900;28;20018;-78
2022/01/05 11:53:03;;;;;;;1.67;0.80;;;;;;;;;;5022467;28;20061;-78
2022/01/05 11:55:30;;;;;;;2.38;0.88;;;;;;;;;;5020117;28;20057;-76
2022/01/05 11:58:15;;;;;;;2.75;1.13;;;;;;;;;;5020454;28;20061;-79
2022/01/05 12:00:42;;;;;;;2.70;1.13;;;;;;;;;;5023342;28;20072;-79
2022/01/05 12:03:08;;;;;;;8.32;1.35;;;;;;;;;;5023457;28;20101;-80
2022/01/05 12:05:54;;;;;;;3.63;1.40;;;;;;;;;;5023497;28;20030;-78
2022/01/05 12:08:39;;;;;;;2.63;1.02;;;;;;;;;;5022636;28;20356;-79
2022/01/05 12:11:05;;;;;;;2.10;1.00;;;;;;;;;;5022334;28;20022;-78
2022/01/05 12:13:38;;;;;;;2.35;1.05;;;;;;;;;;5021137;28;20025;-78
2022/01/05 12:16:04;;;;;;;4.65;1.58;;;;;;;;;;5023282;28;20044;-80
2022/01/05 12:18:35;;;;;;;3.97;1.50;;;;;;;;;;5022351;28;20022;-79
2022/01/05 12:21:01;;;;;;;2.63;1.17;;;;;;;;;;5021694;28;20030;-78
2022/01/05 12:23:30;;;;;;;4.07;1.33;;;;;;;;;;5020709;28;20050;-80
2022/01/05 12:26:02;;;;;;;3.25;1.00;;;;;;;;;;5022873;28;20429;-78
2022/01/05 12:28:30;;;;;;;3.08;1.13;;;;;;;;;;5022409;28;20028;-79
2022/01/05 12:30:56;;;;;;;3.67;1.30;;;;;;;;;;5022893;28;20026;-80
2022/01/05 12:33:22;;;;;;;3.40;1.40;;;;;;;;;;5022535;28;20021;-79
2022/01/05 12:35:50;;;;;;;3.78;1.27;;;;;;;;;;5022826;28;20475;-79
2022/01/05 12:38:31;;;;;;;3.03;1.27;;;;;;;;;;5022311;28;20403;-79
2022/01/05 12:40:58;;;;;;;3.03;1.30;;;;;;;;;;5022333;28;20037;-79
2022/01/05 12:43:24;;;;;;;3.08;1.23;;;;;;;;;;5020625;28;20440;-79
2022/01/05 12:45:51;;;;;;;3.50;1.15;;;;;;;;;;5019814;28;20018;-80
2022/01/05 12:48:33;;;;;;;3.20;1.23;;;;;;;;;;5021110;28;20523;-79
2022/01/05 12:51:28;;;;;;;2.58;1.27;;;;;;;;;;5022419;28;20017;-79
2022/01/05 12:53:55;;;;;;;5.28;1.20;;;;;;;;;;4983630;28;20047;-78
2022/01/05 12:56:22;;;;;;;3.13;1.30;;;;;;;;;;5018723;28;20120;-79
2022/01/05 12:58:51;;;;;;;4.90;1.40;;;;;;;;;;5022206;28;20034;-78
2022/01/05 13:01:17;;;;;;;2.65;1.20;;;;;;;;;;5021215;28;20029;-77
2022/01/05 13:03:43;;;;;;;2.72;1.25;;;;;;;;;;5021104;28;20030;-78
2022/01/05 13:06:36;;;;;;;4.43;1.88;;;;;;;;;;5019025;28;20018;-79
2022/01/05 13:09:07;;;;;;;4.35;1.35;;;;;;;;;;5018791;28;20065;-78
2022/01/05 13:11:33;;;;;;;2.60;1.15;;;;;;;;;;5020515;28;20030;-78
2022/01/05 13:14:18;;;;;;;3.58;1.33;;;;;;;;;;5020846;28;20036;-79
2022/01/05 13:16:45;;;;;;;3.58;1.55;;;;;;;;;;5022138;28;20045;-79
2022/01/05 13:19:29;;;;;;;3.80;1.70;;;;;;;;;;5022228;28;20026;-78
2022/01/05 13:21:57;;;;;;;2.47;1.20;;;;;;;;;;5020460;28;20097;-79
2022/01/05 13:24:26;;;;;;;3.30;1.40;;;;;;;;;;5020200;28;20026;-79
2022/01/05 13:26:59;;;;;;;3.47;1.45;;;;;;;;;;5018465;28;20060;-79
2022/01/05 13:29:28;;;;;;;4.03;1.65;;;;;;;;;;5018979;28;20484;-78
2022/01/05 13:31:55;;;;;;;3.30;1.50;;;;;;;;;;5020213;28;20018;-79
2022/01/05 13:34:46;;;;;;;3.40;1.50;;;;;;;;;;5021576;28;20076;-78
2022/01/05 13:37:13;;;;;;;3.38;1.58;;;;;;;;;;5020275;28;20018;-78
2022/01/05 13:39:44;;;;;;;3.13;1.30;;;;;;;;;;5020290;28;20040;-79
2022/01/05 13:42:11;;;;;;;4.20;1.42;;;;;;;;;;5020672;28;20056;-79
2022/01/05 13:44:41;;;;;;;4.13;1.50;;;;;;;;;;5019407;28;20030;-78
2022/01/05 13:47:08;;;;;;;2.85;1.20;;;;;;;;;;5021492;28;20030;-79
2022/01/05 13:49:35;;;;;;;3.42;1.67;;;;;;;;;;5021981;28;20029;-78
2022/01/05 13:52:11;;;;;;;4.93;1.90;;;;;;;;;;5020027;28;20100;-79
2022/01/05 13:54:41;;;;;;;4.45;1.67;;;;;;;;;;5020849;28;20050;-80
2022/01/05 13:57:25;;;;;;;4.00;1.83;;;;;;;;;;5018438;28;20034;-78
2022/01/05 13:59:57;;;;;;;3.83;1.70;;;;;;;;;;5021342;28;20033;-79
2022/01/05 14:02:23;;;;;;;2.90;1.30;;;;;;;;;;5020668;28;20026;-78
2022/01/05 14:04:50;;;;;;;3.10;1.48;;;;;;;;;;5020942;28;20030;-79
2022/01/05 14:07:18;;;;;;;4.00;1.50;;;;;;;;;;5022961;28;20089;-78
2022/01/05 14:09:44;;;;;;;3.38;1.70;;;;;;;;;;5026004;28;20056;-79
2022/01/05 14:12:30;;;;;;;3.80;1.50;;;;;;;;;;5027457;28;20492;-79
2022/01/05 14:14:57;;;;;;;3.95;1.60;;;;;;;;;;5028843;28;20040;-79
2022/01/05 14:17:23;;;;;;;4.13;2.20;;;;;;;;;;5028485;28;20022;-78
2022/01/05 14:19:49;;;;;;;3.70;1.70;;;;;;;;;;5028061;28;20022;-78
2022/01/05 14:22:19;;;;;;;3.63;1.40;;;;;;;;;;5028094;28;20028;-80
2022/01/05 14:24:46;;;;;;;3.08;1.70;;;;;;;;;;5027151;28;20026;-78
2022/01/05 14:27:21;;;;;;;2.58;1.30;;;;;;;;;;5027418;28;20057;-78
2022/01/05 14:30:00;;;;;;;3.50;1.50;;;;;;;;;;5028503;28;20029;-78
2022/01/05 14:32:32;;;;;;;3.17;1.30;;;;;;;;;;5027832;28;20030;-78
2022/01/05 14:35:00;;;;;;;3.78;1.45;;;;;;;;;;5027525;28;20157;-79
2022/01/05 14:37:28;;;;;;;2.65;1.20;;;;;;;;;;5029044;28;20113;-79
2022/01/05 14:39:56;;;;;;;4.10;1.67;;;;;;;;;;5028760;28;20053;-79
2022/01/05 14:42:23;;;;;;;3.60;1.52;;;;;;;;;;5029038;28;20045;-80
2022/01/05 14:44:50;;;;;;;3.45;1.52;;;;;;;;;;5029545;28;20029;-79
2022/01/05 14:47:24;;;;;;;3.80;1.65;;;;;;;;;;5032646;28;20033;-79
2022/01/05 14:49:50;;;;;;;3.10;1.60;;;;;;;;;;5031329;28;20408;-79
2022/01/05 14:52:22;;;;;;;3.95;1.50;;;;;;;;;;5031615;28;20045;-78
2022/01/05 14:54:50;;;;;;;3.83;1.50;;;;;;;;;;5026471;28;20046;-79